CA-0509 weather

CLOSED Cruikshank Air Field
Ontario, Canada

Public forecast

Using degrees Celsius for public forecast. Weather courtesy of forecast.io.

METAR (pilot weather report)

Closest report is Wiarton Airport, 11.3 nm (20.9 km) NNW. Retrieved 2019/05/23 12:00 UTC (42 minutes ago):

CYVV 231200Z 14009KT 6SM -SHRA BR OVC030 15/14 A2981 RMK SC8 CVCTV CLD EMBD PRESFR SLP097 DENSITY ALT 1000FT

TAF (pilot weather forecast)

Closest forecast is Wiarton Airport, 11.3 nm (20.9 km) NNW. Retrieved 2019/05/23 11:42 UTC (1 hour ago):

TAF CYVV 231038Z 2311/2323 VRB03KT P6SM OVC040 TEMPO 2311/2314 5SM -SHRA BR BKN020 OVC040 BECMG 2312/2314 18010KT FM231400 21012G22KT P6SM -SHRA SCT020 OVC100 TEMPO 2314/2318 5SM -SHRA BR BKN020 OVC080 PROB30 2315/2318 VRB20G30KT 2SM TSRA BR OVC012CB FM231800 24015G25KT P6SM OVC012 TEMPO 2318/2320 BKN025 FM232000 27010G20KT P6SM SCT030 RMK NXT FCST BY 231400Z